createdAt,value
2019-03-26T00:00:28.223Z,0.63
2019-03-26T00:02:55.267Z,0.57
2019-03-26T00:05:22.316Z,0.47
2019-03-26T00:13:07.526Z,0.60
2019-03-26T00:15:34.575Z,0.63
2019-03-26T00:18:01.649Z,0.60
2019-03-26T00:20:28.672Z,0.50
2019-03-26T00:22:55.719Z,0.30
2019-03-26T00:25:22.774Z,0.50
2019-03-26T00:27:49.817Z,0.60
2019-03-26T00:30:16.808Z,0.60
2019-03-26T00:32:43.838Z,0.50
2019-03-26T00:35:10.860Z,0.57
2019-03-26T00:37:37.915Z,0.40
2019-03-26T00:40:04.957Z,0.60
2019-03-26T00:42:32.005Z,0.70
2019-03-26T00:44:59.058Z,0.97
2019-03-26T00:47:26.102Z,0.60
2019-03-26T00:49:53.150Z,0.43
2019-03-26T00:52:20.968Z,0.60
2019-03-26T00:54:48.067Z,0.50
2019-03-26T00:57:15.146Z,0.67
2019-03-26T00:59:42.166Z,0.60
2019-03-26T01:02:09.214Z,0.20
2019-03-26T01:04:36.269Z,0.70
2019-03-26T01:07:05.310Z,0.30
2019-03-26T01:09:32.303Z,0.60
2019-03-26T01:11:59.351Z,0.23
2019-03-26T01:14:26.405Z,0.40
2019-03-26T01:16:53.450Z,0.20
2019-03-26T01:19:20.501Z,0.30
2019-03-26T01:21:47.552Z,0.50
2019-03-26T01:24:14.597Z,0.40
2019-03-26T01:26:41.643Z,0.60
2019-03-26T01:29:08.697Z,0.30
2019-03-26T01:31:35.740Z,0.30
2019-03-26T01:34:02.790Z,0.30
2019-03-26T01:36:29.844Z,0.30
2019-03-26T01:38:56.834Z,0.50
2019-03-26T01:41:24.345Z,0.50
2019-03-26T01:43:51.392Z,0.40
2019-03-26T01:46:18.446Z,0.40
2019-03-26T01:48:45.489Z,0.60
2019-03-26T01:51:12.538Z,0.50
2019-03-26T01:53:39.592Z,0.50
2019-03-26T01:56:06.637Z,0.37
2019-03-26T01:58:33.684Z,0.40
2019-03-26T02:01:00.738Z,0.20
2019-03-26T02:03:27.783Z,0.40
2019-03-26T02:05:56.469Z,0.20
2019-03-26T02:08:23.926Z,0.20
2019-03-26T02:10:53.334Z,0.27
2019-03-26T02:13:20.486Z,0.10
2019-03-26T02:15:47.474Z,0.33
2019-03-26T02:18:14.480Z,0.20
2019-03-26T02:20:41.526Z,0.20
2019-03-26T02:23:08.574Z,0.70
2019-03-26T02:25:36.134Z,0.37
2019-03-26T02:28:03.184Z,0.70
2019-03-26T02:30:30.466Z,0.77
2019-03-26T02:32:57.346Z,1.03
2019-03-26T02:35:24.338Z,1.10
2019-03-26T02:37:51.395Z,0.97
2019-03-26T02:40:18.430Z,0.83
2019-03-26T02:42:45.484Z,1.07
2019-03-26T02:45:12.534Z,0.87
2019-03-26T02:47:40.120Z,1.00
2019-03-26T02:50:07.148Z,0.23
2019-03-26T02:52:34.794Z,0.13
2019-03-26T02:55:02.361Z,0.90
2019-03-26T02:57:29.404Z,0.93
2019-03-26T02:59:56.452Z,0.90
2019-03-26T03:02:24.934Z,0.80
2019-03-26T03:04:51.981Z,1.43
2019-03-26T03:07:19.037Z,1.10
2019-03-26T03:09:46.110Z,1.20
2019-03-26T03:12:13.234Z,1.00
2019-03-26T03:14:40.381Z,0.70
2019-03-26T03:17:07.442Z,1.07
2019-03-26T03:19:34.483Z,0.90
2019-03-26T03:22:03.014Z,1.27
2019-03-26T03:24:30.019Z,1.10
2019-03-26T03:26:57.004Z,1.10
2019-03-26T03:29:24.012Z,1.30
2019-03-26T03:31:51.079Z,1.30
2019-03-26T03:34:18.102Z,1.10
2019-03-26T03:36:45.154Z,1.17
2019-03-26T03:39:12.205Z,1.10
2019-03-26T03:41:39.186Z,1.30
2019-03-26T03:44:06.229Z,1.20
2019-03-26T03:46:33.242Z,0.90
2019-03-26T03:49:00.815Z,0.97
2019-03-26T03:51:27.849Z,1.10
2019-03-26T03:53:54.906Z,0.90
2019-03-26T03:56:21.947Z,1.00
2019-03-26T03:58:49.005Z,1.10
2019-03-26T04:01:16.250Z,1.23
2019-03-26T04:03:43.298Z,1.10
2019-03-26T04:06:10.517Z,0.90
2019-03-26T04:08:37.906Z,1.00
2019-03-26T04:11:04.961Z,1.10
2019-03-26T04:13:32.004Z,1.50
2019-03-26T04:15:59.463Z,1.20
2019-03-26T04:18:26.417Z,1.03
2019-03-26T04:20:53.417Z,1.00
2019-03-26T04:23:20.413Z,1.17
2019-03-26T04:25:47.455Z,1.23
2019-03-26T04:28:14.442Z,1.00
2019-03-26T04:30:41.448Z,1.30
2019-03-26T04:33:08.503Z,1.10
2019-03-26T04:35:35.553Z,1.10
2019-03-26T04:38:02.591Z,1.40
2019-03-26T04:40:29.640Z,1.10
2019-03-26T04:42:56.698Z,1.10
2019-03-26T04:45:23.737Z,1.20
2019-03-26T04:47:50.787Z,1.00
2019-03-26T04:50:17.839Z,1.20
2019-03-26T04:52:44.883Z,1.20
2019-03-26T04:55:11.934Z,1.20
2019-03-26T04:57:38.986Z,1.20
2019-03-26T05:00:24.229Z,1.17
2019-03-26T05:02:51.201Z,1.40
2019-03-26T05:05:18.256Z,1.30
2019-03-26T05:07:45.300Z,1.27
2019-03-26T05:10:12.450Z,1.00
2019-03-26T05:12:39.496Z,1.23
2019-03-26T05:15:06.553Z,1.30
2019-03-26T05:17:33.596Z,1.20
2019-03-26T05:20:00.643Z,1.30
2019-03-26T05:22:27.698Z,1.10
2019-03-26T05:24:54.749Z,1.60
2019-03-26T05:27:21.793Z,1.10
2019-03-26T05:29:48.845Z,1.37
2019-03-26T05:32:15.888Z,1.17
2019-03-26T05:34:42.940Z,1.57
2019-03-26T05:37:09.989Z,1.50
2019-03-26T05:39:36.993Z,2.10
2019-03-26T05:42:03.991Z,1.50
2019-03-26T05:44:31.027Z,1.90
2019-03-26T05:47:01.657Z,1.47
2019-03-26T05:49:26.763Z,1.90
2019-03-26T05:51:55.386Z,1.40
2019-03-26T05:54:41.311Z,1.93
2019-03-26T05:57:26.679Z,1.70
2019-03-26T05:59:59.692Z,1.27
2019-03-26T06:02:26.754Z,1.30
2019-03-26T06:04:53.807Z,1.70
2019-03-26T06:07:23.155Z,1.40
2019-03-26T06:09:50.155Z,1.40
2019-03-26T06:12:17.304Z,2.07
2019-03-26T06:14:45.533Z,2.03
2019-03-26T06:17:12.528Z,1.60
2019-03-26T06:19:39.478Z,2.00
2019-03-26T06:22:06.831Z,1.70
2019-03-26T06:24:33.880Z,1.90
2019-03-26T06:27:00.933Z,1.60
2019-03-26T06:29:27.975Z,1.80
2019-03-26T06:31:55.023Z,1.60
2019-03-26T06:34:45.676Z,1.50
2019-03-26T06:37:33.002Z,1.50
2019-03-26T06:40:00.003Z,1.80
2019-03-26T06:42:27.044Z,1.50
2019-03-26T06:44:54.094Z,1.50
2019-03-26T06:47:21.148Z,1.73
2019-03-26T06:49:48.192Z,1.10
2019-03-26T06:52:15.239Z,1.87
2019-03-26T06:54:42.307Z,1.60
2019-03-26T06:57:09.397Z,1.57
2019-03-26T06:59:36.488Z,1.47
2019-03-26T07:02:03.537Z,1.63
2019-03-26T07:04:30.556Z,1.70
2019-03-26T07:06:58.669Z,1.90
2019-03-26T07:09:25.706Z,1.60
2019-03-26T07:11:52.755Z,1.67
2019-03-26T07:14:30.891Z,1.30
2019-03-26T07:16:58.019Z,1.00
2019-03-26T07:19:25.062Z,0.87
2019-03-26T07:21:52.109Z,1.00
2019-03-26T07:24:19.166Z,1.33
2019-03-26T07:26:48.632Z,1.00
2019-03-26T07:29:17.460Z,0.87
2019-03-26T07:31:44.505Z,0.60
2019-03-26T07:34:13.335Z,0.60
2019-03-26T07:36:40.343Z,0.07
2019-03-26T07:39:07.492Z,0.43
2019-03-26T07:41:34.558Z,0.87
2019-03-26T07:44:01.606Z,1.20
2019-03-26T07:46:28.636Z,4.10
2019-03-26T07:48:55.690Z,0.50
2019-03-26T07:51:22.746Z,0.53
2019-03-26T07:53:49.805Z,0.60
2019-03-26T07:56:16.831Z,0.57
2019-03-26T07:58:43.886Z,0.60
2019-03-26T08:01:10.930Z,0.80
2019-03-26T08:03:37.979Z,0.90
2019-03-26T08:06:05.032Z,0.67
2019-03-26T08:08:32.075Z,0.97
2019-03-26T08:10:59.136Z,0.77
2019-03-26T08:13:26.187Z,1.20
2019-03-26T08:15:53.247Z,0.80
2019-03-26T08:18:20.272Z,0.80
2019-03-26T08:20:47.265Z,0.80
2019-03-26T08:23:14.272Z,0.90
2019-03-26T08:25:41.318Z,0.77
2019-03-26T08:28:08.478Z,1.20
2019-03-26T08:30:35.621Z,0.70
2019-03-26T08:33:02.671Z,1.20
2019-03-26T08:35:29.710Z,0.90
2019-03-26T08:37:56.768Z,0.80
2019-03-26T08:40:23.815Z,0.60
2019-03-26T08:42:50.857Z,0.90
2019-03-26T08:45:18.007Z,2.10
2019-03-26T08:47:45.062Z,0.80
2019-03-26T08:50:12.105Z,1.20
2019-03-26T08:52:39.153Z,1.00
2019-03-26T08:55:06.209Z,0.90
2019-03-26T08:57:33.251Z,1.40
2019-03-26T09:00:00.606Z,1.10
2019-03-26T09:02:27.658Z,1.00
2019-03-26T09:04:54.703Z,0.97
2019-03-26T09:07:21.856Z,1.00
2019-03-26T09:09:48.904Z,1.00
2019-03-26T09:12:17.123Z,1.13
2019-03-26T09:14:44.227Z,1.30
2019-03-26T09:17:11.283Z,0.97
2019-03-26T09:19:38.330Z,0.80
2019-03-26T09:22:05.374Z,0.90
2019-03-26T09:24:32.730Z,1.00
2019-03-26T09:26:59.880Z,0.87
2019-03-26T09:29:27.034Z,0.70
2019-03-26T09:31:53.978Z,0.60
2019-03-26T09:34:21.031Z,0.40
2019-03-26T09:36:47.974Z,0.40
2019-03-26T09:39:15.021Z,0.50
2019-03-26T09:41:42.076Z,0.60
2019-03-26T09:44:09.118Z,0.53
2019-03-26T09:46:36.167Z,0.70
2019-03-26T09:49:03.221Z,0.60
2019-03-26T09:51:30.265Z,0.73
2019-03-26T09:53:57.265Z,0.70
2019-03-26T09:56:30.546Z,0.70
2019-03-26T09:58:51.409Z,0.90
2019-03-26T10:01:18.460Z,0.80
2019-03-26T10:03:45.515Z,0.90
2019-03-26T10:06:22.807Z,0.87
2019-03-26T10:08:51.833Z,0.80
2019-03-26T10:11:06.754Z,1.10
2019-03-26T10:13:36.228Z,1.10
2019-03-26T10:16:00.959Z,0.90
2019-03-26T10:18:27.904Z,0.90
2019-03-26T10:20:54.957Z,1.40
2019-03-26T10:23:22.000Z,1.40
2019-03-26T10:25:49.047Z,1.17
2019-03-26T10:28:16.038Z,1.50
2019-03-26T10:30:44.312Z,1.00
2019-03-26T10:33:28.162Z,1.07
2019-03-26T10:35:55.161Z,1.10
2019-03-26T10:38:22.216Z,1.00
2019-03-26T10:40:49.367Z,1.13
2019-03-26T10:43:16.519Z,1.00
2019-03-26T10:45:43.560Z,1.30
2019-03-26T10:48:11.376Z,1.00
2019-03-26T10:50:39.097Z,1.00
2019-03-26T10:53:06.140Z,1.00
2019-03-26T10:55:33.195Z,0.80
2019-03-26T10:58:00.238Z,0.90
2019-03-26T11:00:27.286Z,0.70
2019-03-26T11:02:55.768Z,0.80
2019-03-26T11:05:22.816Z,1.20
2019-03-26T11:07:49.872Z,0.90
2019-03-26T11:10:17.656Z,0.73
2019-03-26T11:12:45.603Z,1.00
2019-03-26T11:15:12.619Z,0.83
2019-03-26T11:17:39.598Z,0.70
2019-03-26T11:20:06.647Z,0.90
2019-03-26T11:22:34.208Z,0.80
2019-03-26T11:25:01.259Z,0.60
2019-03-26T11:27:28.251Z,0.70
2019-03-26T11:29:55.402Z,0.40
2019-03-26T11:32:22.400Z,0.57
2019-03-26T11:34:49.393Z,0.77
2019-03-26T11:37:16.451Z,0.40
2019-03-26T11:39:43.546Z,0.80
2019-03-26T11:42:10.599Z,0.70
2019-03-26T11:44:37.641Z,0.80
2019-03-26T11:47:04.701Z,0.50
2019-03-26T11:49:31.745Z,0.85
2019-03-26T11:51:58.788Z,0.75
2019-03-26T11:54:25.837Z,0.40
2019-03-26T11:56:52.891Z,0.73
2019-03-26T11:59:20.043Z,0.70
2019-03-26T12:01:47.085Z,0.70
2019-03-26T12:04:14.135Z,0.77
2019-03-26T12:06:41.187Z,0.62
2019-03-26T12:09:08.231Z,0.90
2019-03-26T12:11:37.810Z,0.55
2019-03-26T12:14:04.791Z,0.62
2019-03-26T12:16:31.781Z,0.60
2019-03-26T12:18:58.786Z,0.65
2019-03-26T12:21:25.833Z,0.50
2019-03-26T12:23:52.878Z,0.62
2019-03-26T12:26:20.029Z,0.80
2019-03-26T12:28:48.470Z,0.60
2019-03-26T12:31:15.566Z,0.60
2019-03-26T12:33:42.508Z,0.47
2019-03-26T12:36:09.554Z,0.60
2019-03-26T12:38:38.343Z,0.75
2019-03-26T12:41:05.295Z,0.80
2019-03-26T12:43:32.240Z,0.52
2019-03-26T12:46:01.689Z,0.40
2019-03-26T12:48:26.441Z,0.50
2019-03-26T12:50:54.304Z,0.30
2019-03-26T12:53:21.357Z,0.50
2019-03-26T12:55:48.637Z,0.70
2019-03-26T12:58:15.858Z,0.73
2019-03-26T13:00:42.908Z,0.62
2019-03-26T13:03:10.059Z,0.52
2019-03-26T13:06:02.881Z,0.40
2019-03-26T13:08:39.256Z,0.35
2019-03-26T13:11:06.330Z,0.60
2019-03-26T13:13:33.382Z,0.65
2019-03-26T13:16:00.431Z,0.80
2019-03-26T13:18:27.474Z,0.80
2019-03-26T13:20:54.424Z,0.80
2019-03-26T13:23:21.468Z,0.77
2019-03-26T13:25:48.517Z,0.85
2019-03-26T13:28:15.770Z,1.00
2019-03-26T13:30:42.819Z,0.88
2019-03-26T13:33:09.812Z,0.93
2019-03-26T13:35:36.918Z,0.70
2019-03-26T13:38:03.915Z,1.00
2019-03-26T13:40:30.913Z,1.10
2019-03-26T13:42:58.984Z,1.00
2019-03-26T13:45:26.031Z,0.60
2019-03-26T13:47:53.491Z,0.45
2019-03-26T13:50:20.545Z,0.80
2019-03-26T13:52:47.588Z,0.80
2019-03-26T13:55:16.480Z,0.90
2019-03-26T13:57:45.165Z,0.95
2019-03-26T14:00:12.319Z,0.80
2019-03-26T14:02:39.316Z,1.23
2019-03-26T14:05:07.232Z,0.95
2019-03-26T14:07:34.289Z,1.05
2019-03-26T14:10:01.336Z,0.90
2019-03-26T14:12:44.961Z,1.12
2019-03-26T14:15:32.482Z,0.53
2019-03-26T14:18:11.361Z,1.00
2019-03-26T14:20:38.478Z,1.10
2019-03-26T14:25:57.500Z,1.00
2019-03-26T14:28:24.560Z,0.90
2019-03-26T14:30:51.554Z,0.70
2019-03-26T14:33:20.545Z,0.98
2019-03-26T14:35:47.601Z,1.00
2019-03-26T14:38:14.644Z,0.80
2019-03-26T14:40:53.956Z,0.97
2019-03-26T14:43:09.052Z,0.90
2019-03-26T14:45:36.607Z,0.80
2019-03-26T14:48:03.664Z,0.90
2019-03-26T14:50:30.708Z,0.90
2019-03-26T14:52:57.755Z,1.20
2019-03-26T14:55:26.441Z,0.97
2019-03-26T14:57:53.496Z,0.80
2019-03-26T15:00:20.540Z,0.73
2019-03-26T15:02:47.587Z,1.20
2019-03-26T15:05:14.640Z,0.90
2019-03-26T15:07:42.098Z,1.00
2019-03-26T15:10:09.142Z,0.90
2019-03-26T15:12:36.215Z,0.90
2019-03-26T15:15:03.342Z,0.50
2019-03-26T15:17:45.503Z,0.77
2019-03-26T15:20:29.822Z,0.97
2019-03-26T15:22:58.160Z,0.90
2019-03-26T15:25:45.914Z,0.90
2019-03-26T15:28:12.969Z,1.10
2019-03-26T15:30:40.012Z,1.20
2019-03-26T15:33:07.001Z,0.85
2019-03-26T15:35:34.004Z,0.97
2019-03-26T15:38:01.059Z,0.87
2019-03-26T15:40:28.103Z,0.90
2019-03-26T15:42:55.457Z,1.10
2019-03-26T15:45:22.458Z,0.83
2019-03-26T15:47:49.452Z,1.00
2019-03-26T15:50:18.858Z,1.00
2019-03-26T15:52:45.904Z,1.10
2019-03-26T15:55:13.578Z,1.20
2019-03-26T15:57:41.436Z,1.20
2019-03-26T16:00:08.488Z,0.93
2019-03-26T16:02:35.429Z,1.23
2019-03-26T16:05:02.483Z,1.10
2019-03-26T16:07:32.974Z,1.27
2019-03-26T16:09:56.785Z,1.10
2019-03-26T16:12:23.828Z,1.00
2019-03-26T16:14:50.881Z,1.57
2019-03-26T16:17:18.030Z,1.00
2019-03-26T16:19:45.082Z,1.50
2019-03-26T16:22:17.806Z,2.97
2019-03-26T16:24:44.959Z,4.83
2019-03-26T16:27:11.956Z,2.47
2019-03-26T16:29:50.780Z,1.40
2019-03-26T16:32:17.830Z,1.40
2019-03-26T16:34:44.883Z,1.43
2019-03-26T16:37:11.927Z,1.33
2019-03-26T16:39:38.979Z,2.40
2019-03-26T16:42:06.952Z,3.53
2019-03-26T16:44:33.995Z,2.50
2019-03-26T16:47:01.049Z,1.90
2019-03-26T16:49:32.803Z,2.70
2019-03-26T16:51:59.855Z,1.87
2019-03-26T16:54:28.192Z,1.60
2019-03-26T16:56:56.201Z,1.40
2019-03-26T16:59:42.187Z,1.47
2019-03-26T17:02:09.187Z,1.50
2019-03-26T17:04:38.805Z,1.37
2019-03-26T17:07:05.904Z,2.93
2019-03-26T17:09:32.955Z,1.50
2019-03-26T17:12:03.442Z,1.80
2019-03-26T17:14:27.258Z,2.60
2019-03-26T17:17:09.122Z,1.97
2019-03-26T17:19:36.150Z,1.90
2019-03-26T17:22:24.779Z,2.10
2019-03-26T17:24:51.802Z,3.20
2019-03-26T17:27:37.550Z,2.93
2019-03-26T17:30:18.259Z,2.50
2019-03-26T17:32:53.702Z,2.57
2019-03-26T17:35:21.773Z,2.60
2019-03-26T17:38:57.104Z,2.77
2019-03-26T17:41:40.048Z,3.13
2019-03-26T17:44:09.245Z,2.50
2019-03-26T17:46:36.904Z,2.83
2019-03-26T17:49:03.853Z,2.90
2019-03-26T17:51:30.903Z,2.80
2019-03-26T17:53:59.586Z,3.23
2019-03-26T17:56:26.640Z,3.97
2019-03-26T17:58:53.684Z,3.87
2019-03-26T18:01:20.732Z,4.10
2019-03-26T18:03:47.787Z,3.57
2019-03-26T18:06:14.829Z,2.80
2019-03-26T18:08:41.876Z,2.40
2019-03-26T18:11:10.976Z,2.90
2019-03-26T18:13:38.023Z,3.20
2019-03-26T18:16:05.077Z,2.83
2019-03-26T18:18:32.733Z,3.37
2019-03-26T18:20:59.782Z,3.10
2019-03-26T18:23:26.934Z,3.30
2019-03-26T18:25:54.084Z,3.13
2019-03-26T18:28:21.144Z,3.80
2019-03-26T18:30:48.132Z,2.50
2019-03-26T18:33:15.338Z,2.90
2019-03-26T18:35:43.932Z,4.47
2019-03-26T18:38:10.982Z,4.43
2019-03-26T18:40:38.022Z,3.70
2019-03-26T18:43:27.929Z,6.80
2019-03-26T18:45:53.314Z,4.57
2019-03-26T18:48:20.364Z,3.87
2019-03-26T18:50:47.928Z,4.50
2019-03-26T18:53:14.865Z,4.97
2019-03-26T18:56:03.844Z,5.17
2019-03-26T18:58:32.364Z,4.23
2019-03-26T19:00:59.462Z,3.87
2019-03-26T19:03:26.508Z,4.03
2019-03-26T19:05:53.562Z,4.30
2019-03-26T19:08:23.200Z,3.63
2019-03-26T19:10:53.273Z,4.30
2019-03-26T19:13:24.636Z,5.23
2019-03-26T19:18:34.071Z,5.43
2019-03-26T19:21:02.709Z,6.23
2019-03-26T19:23:30.428Z,6.00
2019-03-26T19:25:57.496Z,4.70
2019-03-26T19:28:24.540Z,5.40
2019-03-26T19:30:51.589Z,4.80
2019-03-26T19:33:18.643Z,3.70
2019-03-26T19:35:45.692Z,3.60
2019-03-26T19:38:12.735Z,3.13
2019-03-26T19:40:39.791Z,3.60
2019-03-26T19:43:11.357Z,3.97
2019-03-26T19:45:34.091Z,3.70
2019-03-26T19:48:01.241Z,3.30
2019-03-26T19:50:28.294Z,3.30
2019-03-26T19:52:58.000Z,3.80
2019-03-26T19:55:25.044Z,3.40
2019-03-26T19:57:55.169Z,4.13
2019-03-26T20:00:22.222Z,10.80
2019-03-26T20:02:49.271Z,6.93
2019-03-26T20:05:16.522Z,4.70
2019-03-26T20:07:43.570Z,4.50
2019-03-26T20:10:10.664Z,4.90
2019-03-26T20:12:37.715Z,3.83
2019-03-26T20:15:07.276Z,4.80
2019-03-26T20:17:34.429Z,5.70
2019-03-26T20:20:04.034Z,4.30
2019-03-26T20:22:31.234Z,3.63
2019-03-26T20:24:58.488Z,4.10
2019-03-26T20:27:26.106Z,3.27
2019-03-26T20:29:53.042Z,2.73
2019-03-26T20:32:20.097Z,3.33
2019-03-26T20:34:47.088Z,3.60
2019-03-26T20:37:14.090Z,3.20
2019-03-26T20:39:41.647Z,3.50
2019-03-26T20:42:08.699Z,3.40
2019-03-26T20:44:35.744Z,3.37
2019-03-26T20:47:02.791Z,3.43
2019-03-26T20:49:29.885Z,3.57
2019-03-26T20:51:56.844Z,4.40
2019-03-26T20:54:23.839Z,4.13
2019-03-26T20:56:51.606Z,4.10
2019-03-26T20:59:18.649Z,3.50
2019-03-26T21:01:48.699Z,3.83
2019-03-26T21:04:16.021Z,4.00
2019-03-26T21:06:45.173Z,4.23
2019-03-26T21:09:12.891Z,3.57
2019-03-26T21:11:41.343Z,3.90
2019-03-26T21:14:08.518Z,4.00
2019-03-26T21:16:35.512Z,4.20
2019-03-26T21:19:03.788Z,4.10
2019-03-26T21:21:32.884Z,3.93
2019-03-26T21:24:00.403Z,4.00
2019-03-26T21:26:27.448Z,4.00
2019-03-26T21:28:54.494Z,3.90
2019-03-26T21:31:23.286Z,4.17
2019-03-26T21:33:50.333Z,4.87
2019-03-26T21:36:19.430Z,4.07
2019-03-26T21:38:46.478Z,3.60
2019-03-26T21:41:13.531Z,4.50
2019-03-26T21:43:41.653Z,4.40
2019-03-26T21:46:10.083Z,3.77
2019-03-26T21:48:37.540Z,5.40
2019-03-26T21:51:05.055Z,27.40
2019-03-26T21:53:32.056Z,20.33
2019-03-26T21:56:06.538Z,5.17
2019-03-26T21:58:26.143Z,4.37
2019-03-26T22:00:53.239Z,3.97
2019-03-26T22:03:20.214Z,3.83
2019-03-26T22:05:48.046Z,3.30
2019-03-26T22:08:14.343Z,3.53
2019-03-26T22:10:41.386Z,4.00
2019-03-26T22:13:08.435Z,3.53
2019-03-26T22:15:35.488Z,4.20
2019-03-26T22:18:02.532Z,3.73
2019-03-26T22:20:30.712Z,3.70
2019-03-26T22:22:57.859Z,4.23
2019-03-26T22:25:24.906Z,4.00
2019-03-26T22:27:51.903Z,3.43
2019-03-26T22:30:18.901Z,3.37
2019-03-26T22:32:46.258Z,3.70
2019-03-26T22:35:13.312Z,3.37
2019-03-26T22:37:42.304Z,3.80
2019-03-26T22:40:09.348Z,3.77
2019-03-26T22:42:36.399Z,3.97
2019-03-26T22:45:03.452Z,2.87
2019-03-26T22:47:30.493Z,2.80
2019-03-26T22:49:57.546Z,3.13
2019-03-26T22:52:24.601Z,3.33
2019-03-26T22:54:51.643Z,3.60
2019-03-26T22:57:18.690Z,2.60
2019-03-26T22:59:45.782Z,3.00
2019-03-26T23:02:12.790Z,3.43
2019-03-26T23:04:39.838Z,3.03
2019-03-26T23:07:06.831Z,3.10
2019-03-26T23:09:33.828Z,2.90
2019-03-26T23:12:00.887Z,3.23
2019-03-26T23:14:27.927Z,2.83
2019-03-26T23:16:55.926Z,2.70
2019-03-26T23:19:22.949Z,2.43
2019-03-26T23:21:49.992Z,1.83
2019-03-26T23:24:18.884Z,1.50
2019-03-26T23:26:45.937Z,1.73
2019-03-26T23:29:15.032Z,1.80
2019-03-26T23:31:42.391Z,1.80
2019-03-26T23:34:09.331Z,1.73
2019-03-26T23:36:36.385Z,1.83
2019-03-26T23:39:07.915Z,2.27
2019-03-26T23:41:34.880Z,1.80
2019-03-26T23:44:02.445Z,1.97
2019-03-26T23:46:29.442Z,2.10
2019-03-26T23:48:56.444Z,3.30
2019-03-26T23:51:23.591Z,2.47
2019-03-26T23:53:50.637Z,2.73
2019-03-26T23:56:17.684Z,2.03
2019-03-26T23:58:46.062Z,1.93
